x

Sand Key, Fl (sanf1) Weather Station

8:50am - Fri 22nd Aug 2014 All times are CDT. -4 hours from GMT.

  • Wind
    10mph, 13mph gusts
  • Air Temp 85°f
  • Sea Pressure 1017.8mb
  • Sand Key, Fl
  • Sand Key, Fl

More Historic Weather Station data

Upgrade to MSW Pro to gain access to the past 30 days of data for over 8000 Wavebouys and Weather Stations around the globe.

Join Pro

Comparision Forecast

View Surf forecast
   
Fri 08/22 8:50am 10 13 mph 1017.8mb 85f
7:50am 13 15 mph 1017.3mb 85f
6:50am 13 15 mph 1016.9mb 85f
5:50am 14 15 mph 1016.8mb 85f
3:50am 13 16 mph 1017mb 85f
2:50am 13 16 mph 1017.4mb 85f
1:50am 10 11 mph 1017.8mb 85f
12:50am 10 14 mph 1018.7mb 85f
Thu 08/21 11:50pm 11 13 mph 1019.2mb 86f
10:50pm 9 11 mph 1019.3mb 86f
9:50pm 9 11 mph 1018.9mb 86f
8:50pm 10 11 mph 1018mb 86f
7:50pm 10 13 mph 1017.4mb 86f
6:50pm 11 14 mph 1017mb 86f
5:50pm 11 14 mph 1017.2mb 86f
4:50pm 10 14 mph 1017.6mb 85f
3:50pm 10 14 mph 1018.3mb 86f
2:50pm 11 14 mph 1018.3mb 86f
1:50pm 11 14 mph 1019.1mb 86f
12:50pm 14 15 mph 1019.3mb 86f
11:50am 10 13 mph 1019.4mb 86f
10:50am 13 14 mph 1019.6mb 85f
9:50am 8 14 mph 1019.2mb 85f
8:50am 10 13 mph 1018.8mb 86f
7:50am 13 15 mph 1018.4mb 85f
6:50am 11 15 mph 1018mb 85f
5:50am 11 14 mph 1017.5mb 85f
4:50am 10 11 mph 1017.4mb 84f
3:50am 11 14 mph 1017.4mb 84f
2:50am 9 11 mph 1018mb 85f
1:50am 5 6 mph 1018.6mb 83f
12:50am 10 13 mph 1018.9mb 86f
Wed 08/20 11:50pm 10 11 mph 1019mb 85f
10:50pm 10 13 mph 1018.6mb 85f
9:50pm 14 15 mph 1018.2mb 85f
8:50pm 9 11 mph 1018.1mb 84f
7:50pm 14 17 mph 1018.2mb 84f
6:50pm 6 8 mph 1018mb 84f
5:50pm 10 14 mph 1018.1mb 80f
4:50pm 23 25 mph 1017.6mb 83f
3:50pm 7 9 mph 1017.9mb 86f
2:50pm 10 13 mph 1017.9mb 86f
1:50pm 5 6 mph 1018.5mb 86f
12:50pm 5 6 mph 1019.2mb 85f
11:50am 5 10 mph 1019.2mb 86f
10:50am 6 9 mph 1019mb 86f
9:50am 8 9 mph 1018mb 86f
8:50am 6 8 mph 1017.7mb 86f
7:50am 8 10 mph 1016.8mb 86f
6:50am 9 11 mph 1016.6mb 85f
5:50am 10 13 mph 1015.9mb 85f
4:50am 10 11 mph 1015.8mb 85f
3:50am 10 14 mph 1015.7mb 85f
2:50am 10 14 mph 1016mb 85f
1:50am 11 14 mph 1016mb 85f
12:50am 9 11 mph 1016.8mb 85f
Tue 08/19 11:50pm 9 11 mph 1017mb 85f
10:50pm 9 11 mph 1016.9mb 85f
9:50pm 6 7 mph 1016.6mb 85f
8:50pm 7 9 mph 1015.9mb 85f
7:50pm 6 7 mph 1015.4mb 85f
6:50pm 7 9 mph 1015.2mb 85f
5:50pm 7 9 mph 1015.3mb 85f
4:50pm 8 10 mph 1015.5mb 85f
3:50pm 8 9 mph 1016mb 85f
2:50pm 7 9 mph 1016.5mb 85f
1:50pm 8 9 mph 1016.9mb 85f
12:50pm 9 11 mph 1017.5mb 85f
11:50am 11 14 mph 1017.5mb 85f
10:50am 9 11 mph 1017.5mb 85f
9:50am 9 10 mph 1017.4mb 85f
8:50am 6 9 mph 1016.9mb 85f
7:50am 5 7 mph 1016.1mb 84f
6:50am 7 8 mph 1015.5mb 84f
5:50am 6 9 mph 1015.3mb 84f
4:50am 6 8 mph 1014.7mb 84f
3:50am 5 7 mph 1014.7mb 84f
2:50am 16 18 mph 1015.2mb 84f
1:50am 17 23 mph 1015.9mb 85f
12:50am 14 16 mph 1016.6mb 86f
Mon 08/18 11:50pm 8 9 mph 1016.8mb 86f
10:50pm 8 9 mph 1016.7mb 86f
9:50pm 7 8 mph 1016.3mb 86f
8:50pm 8 14 mph 1015.8mb 86f
7:50pm 10 13 mph 1015.5mb 86f
6:50pm 9 11 mph 1015.4mb 86f
5:50pm 10 13 mph 1015.1mb 86f
4:50pm 9 10 mph 1015.3mb 86f
3:50pm 8 10 mph 1015.7mb 86f
2:50pm 7 9 mph 1015.9mb 86f